New Orleans, Louisiana
Traffic Map
Current Weather Conditions
New Orleans, Louisiana
Clear
Clear
85°
Feels Like: 87°
Wind Chill: 85° Ceiling: Unl
Heat Index: 87° Visibility: 10mi
Dew Point: 66° Wind: 14mph
Humidity: 53% Direction: 150° (SSE)
Pressure: 29.98in Gusts: 0mph
Raw Report DataKNEW 202353Z 15012KT 10SM CLR 29/19 A2998 RMK AO2 SLP146 T02940189 10317 20294 56007 $
Traffic Incident Summary
Active as of:
Severity:
Category:
InformationThere was an issue retrieving the traffic information for this location. Please try a different location or try again shortly.
Advertisements